Time;durP1;ratioP1;P1;durP2;ratioP2;P2;SDS_P1;SDS_P2;PMS_P1;PMS_P2;Temp;Humidity;BMP_temperature;BMP_pressure;BME280_temperature;BME280_humidity;BME280_pressure;Samples;Min_cycle;Max_cycle;Signal;HPM_P1;HPM_P2
2022/07/10 00:01:51;;;;;;;9.00;7.67;;;;;;;20.83;100.00;99890.84;1772041;81;21081;-89
2022/07/10 00:04:21;;;;;;;11.18;8.08;;;;;;;20.86;100.00;99896.27;1771532;81;21057;-92
2022/07/10 00:06:48;;;;;;;9.40;8.33;;;;;;;20.89;100.00;99907.75;1772004;80;22142;-89
2022/07/10 00:09:16;;;;;;;9.28;8.18;;;;;;;20.92;100.00;99880.90;1771478;80;21958;-90
2022/07/10 00:11:44;;;;;;;10.38;8.93;;;;;;;20.92;100.00;99883.02;1772033;81;21587;-88
2022/07/10 00:14:12;;;;;;;9.15;7.80;;;;;;;20.96;100.00;99896.67;1771661;81;21077;-89
2022/07/10 00:16:39;;;;;;;9.60;7.58;;;;;;;20.97;100.00;99895.66;1772338;81;21065;-88
2022/07/10 00:19:06;;;;;;;9.35;8.30;;;;;;;21.00;100.00;99897.08;1771693;80;21097;-90
2022/07/10 00:21:33;;;;;;;12.30;8.53;;;;;;;21.01;100.00;99899.54;1771685;81;21162;-90
2022/07/10 00:24:00;;;;;;;11.08;7.85;;;;;;;21.03;100.00;99904.10;1771682;80;21109;-90
2022/07/10 00:26:27;;;;;;;14.20;8.08;;;;;;;21.03;100.00;99894.84;1768288;80;21034;-89
2022/07/10 00:28:54;;;;;;;9.00;7.78;;;;;;;21.05;100.00;99895.98;1765109;80;21050;-89
2022/07/10 00:31:22;;;;;;;10.35;8.43;;;;;;;21.05;100.00;99886.20;1764642;80;21093;-89
2022/07/10 00:33:50;;;;;;;13.05;8.60;;;;;;;21.04;100.00;99888.53;1765169;81;21076;-89
2022/07/10 00:36:18;;;;;;;8.78;7.97;;;;;;;21.02;100.00;99887.94;1764732;81;21081;-89
2022/07/10 00:38:45;;;;;;;10.82;8.03;;;;;;;21.02;100.00;99883.98;1764958;81;21081;-90
2022/07/10 00:41:12;;;;;;;10.60;7.97;;;;;;;21.04;100.00;99874.50;1764655;80;21004;-90
2022/07/10 00:43:59;;;;;;;9.63;7.87;;;;;;;21.04;100.00;99877.95;1764718;81;21027;-88
2022/07/10 00:46:27;;;;;;;10.75;8.35;;;;;;;21.04;100.00;99881.92;1764511;80;21142;-90
2022/07/10 00:48:55;;;;;;;9.08;7.80;;;;;;;21.02;100.00;99883.14;1764652;80;21013;-89
2022/07/10 00:51:25;;;;;;;9.13;8.08;;;;;;;20.95;100.00;99872.05;1764754;81;21035;-90
2022/07/10 00:53:53;;;;;;;11.63;8.25;;;;;;;20.89;100.00;99868.89;1764484;81;21070;-90
2022/07/10 00:56:24;;;;;;;9.00;8.08;;;;;;;20.88;100.00;99871.23;1754372;80;21057;-89
2022/07/10 00:58:51;;;;;;;8.88;8.08;;;;;;;20.88;100.00;99861.14;1750721;81;21927;-90
2022/07/10 01:01:20;;;;;;;13.40;8.53;;;;;;;20.85;100.00;99857.06;1738337;82;21277;-88
2022/07/10 01:03:47;;;;;;;9.13;8.18;;;;;;;20.85;100.00;99857.59;1746679;80;21026;-90
2022/07/10 01:06:15;;;;;;;11.40;8.43;;;;;;;20.82;100.00;99857.48;1740878;81;21005;-90
2022/07/10 01:08:45;;;;;;;10.23;8.25;;;;;;;20.77;100.00;99857.26;1751471;80;21327;-90
2022/07/10 01:11:14;;;;;;;9.88;8.05;;;;;;;20.70;100.00;99859.05;1756235;80;21170;-90
2022/07/10 01:13:43;;;;;;;10.05;8.10;;;;;;;20.60;100.00;99859.44;1764606;80;21109;-90
2022/07/10 01:16:12;;;;;;;9.28;8.20;;;;;;;20.55;100.00;99862.68;1764794;80;21101;-89
2022/07/10 01:18:40;;;;;;;9.75;8.38;;;;;;;20.56;100.00;99870.09;1744260;80;21029;-89
2022/07/10 01:21:28;;;;;;;8.85;7.92;;;;;;;20.57;100.00;99867.77;1751889;81;21073;-90
2022/07/10 01:23:56;;;;;;;11.65;8.03;;;;;;;20.57;100.00;99865.12;1739841;81;21159;-92
2022/07/10 01:26:24;;;;;;;10.32;8.43;;;;;;;20.56;100.00;99863.48;1753039;81;21575;-89
2022/07/10 01:28:53;;;;;;;11.70;8.68;;;;;;;20.53;100.00;99862.58;1715997;82;21059;-89
2022/07/10 01:31:28;;;;;;;9.80;8.55;;;;;;;20.49;100.00;99855.03;1746988;82;21451;-89
2022/07/10 01:33:56;;;;;;;11.33;8.35;;;;;;;20.45;100.00;99854.30;1749241;82;21025;-90
2022/07/10 01:36:23;;;;;;;12.15;8.45;;;;;;;20.42;100.00;99854.20;1718171;83;21143;-90
2022/07/10 01:38:55;;;;;;;12.47;8.43;;;;;;;20.41;100.00;99851.77;1748311;82;21347;-90
2022/07/10 01:41:23;;;;;;;9.35;8.18;;;;;;;20.39;100.00;99847.98;1739537;82;21519;-89
2022/07/10 01:43:51;;;;;;;9.45;8.55;;;;;;;20.38;100.00;99850.34;1725015;82;21082;-91
2022/07/10 01:46:19;;;;;;;12.60;8.80;;;;;;;20.33;100.00;99846.97;1746074;82;21084;-90
2022/07/10 01:48:46;;;;;;;10.55;8.95;;;;;;;20.27;100.00;99841.64;1715980;83;21140;-90
2022/07/10 01:51:13;;;;;;;13.58;8.88;;;;;;;20.21;100.00;99841.13;1715725;83;21056;-89
2022/07/10 01:53:40;;;;;;;10.60;8.95;;;;;;;20.10;100.00;99836.70;1741139;82;21043;-88
2022/07/10 01:56:10;;;;;;;10.08;8.90;;;;;;;20.03;100.00;99833.22;1749244;82;21042;-89
2022/07/10 01:58:38;;;;;;;14.78;9.15;;;;;;;19.93;100.00;99827.47;1749519;82;21048;-89
2022/07/10 02:01:06;;;;;;;10.05;8.80;;;;;;;19.76;100.00;99825.13;1749485;81;21777;-89
2022/07/10 02:06:21;;;;;;;10.23;9.13;;;;;;;19.49;100.00;99812.27;1749184;82;21033;-90
2022/07/10 02:08:48;;;;;;;9.60;8.65;;;;;;;19.39;100.00;99816.06;1748911;82;21632;-90
2022/07/10 02:11:15;;;;;;;10.65;9.48;;;;;;;19.32;100.00;99815.20;1749135;81;21470;-90
2022/07/10 02:13:42;;;;;;;11.05;8.68;;;;;;;19.27;100.00;99814.17;1749098;81;21113;-91
2022/07/10 02:16:10;;;;;;;10.95;9.15;;;;;;;19.26;100.00;99815.98;1748952;82;21056;-91
2022/07/10 02:18:39;;;;;;;11.43;9.50;;;;;;;19.28;100.00;99815.78;1749159;82;21554;-90
2022/07/10 02:21:06;;;;;;;10.90;9.70;;;;;;;19.33;100.00;99817.36;1748797;82;21033;-90
2022/07/10 02:23:35;;;;;;;11.70;9.58;;;;;;;19.34;100.00;99817.16;1748937;81;21131;-91
2022/07/10 02:26:03;;;;;;;10.63;9.53;;;;;;;19.32;100.00;99821.80;1749087;82;21255;-90
2022/07/10 02:28:31;;;;;;;12.88;10.48;;;;;;;19.29;100.00;99820.05;1748915;82;21060;-90
2022/07/10 02:30:58;;;;;;;12.98;10.40;;;;;;;19.26;100.00;99825.73;1747046;82;21042;-91
2022/07/10 02:33:26;;;;;;;16.12;13.58;;;;;;;19.22;100.00;99829.27;1689306;84;21596;-91
2022/07/10 02:35:53;;;;;;;16.75;14.90;;;;;;;19.18;100.00;99828.00;1719473;83;21050;-90
2022/07/10 02:38:20;;;;;;;18.57;15.28;;;;;;;19.14;100.00;99824.13;1689047;83;21213;-90
2022/07/10 02:40:47;;;;;;;15.50;13.70;;;;;;;19.10;100.00;99826.81;1719255;83;22333;-90
2022/07/10 02:43:17;;;;;;;16.10;12.80;;;;;;;19.09;100.00;99831.28;1688919;84;21094;-90
2022/07/10 02:45:44;;;;;;;13.88;11.90;;;;;;;19.08;100.00;99830.45;1719350;83;21037;-89
2022/07/10 02:48:11;;;;;;;13.58;11.25;;;;;;;19.08;100.00;99826.50;1688579;84;21062;-89
2022/07/10 02:50:38;;;;;;;13.72;12.33;;;;;;;19.08;100.00;99822.54;1719248;83;21719;-90
2022/07/10 02:53:06;;;;;;;14.47;11.97;;;;;;;19.10;100.00;99811.81;1708504;83;21535;-89
2022/07/10 02:55:33;;;;;;;13.45;12.00;;;;;;;19.11;100.00;99812.10;1739294;81;21571;-89
2022/07/10 02:58:01;;;;;;;16.07;12.78;;;;;;;19.13;100.00;99813.25;1749232;81;21081;-89
2022/07/10 03:00:29;;;;;;;13.93;11.80;;;;;;;19.12;100.00;99811.10;1749103;82;21055;-90
2022/07/10 03:02:56;;;;;;;14.55;11.88;;;;;;;19.12;100.00;99817.70;1749223;80;21131;-90
2022/07/10 03:05:24;;;;;;;14.20;10.93;;;;;;;19.16;100.00;99807.58;1748798;80;21057;-89
2022/07/10 03:07:51;;;;;;;11.22;10.13;;;;;;;19.19;100.00;99801.41;1749261;82;21002;-88
2022/07/10 03:10:19;;;;;;;11.43;10.15;;;;;;;19.26;100.00;99801.98;1748936;80;21021;-90
2022/07/10 03:12:47;;;;;;;13.18;10.50;;;;;;;19.33;100.00;99798.36;1748706;82;21613;-89
2022/07/10 03:15:15;;;;;;;10.38;9.30;;;;;;;19.41;100.00;99792.63;1748774;81;21178;-92
2022/07/10 03:17:44;;;;;;;10.88;9.68;;;;;;;19.50;100.00;99786.19;1749080;82;21521;-90
2022/07/10 03:20:11;;;;;;;11.20;9.58;;;;;;;19.58;100.00;99790.51;1749091;82;21524;-90
2022/07/10 03:22:39;;;;;;;10.18;9.18;;;;;;;19.67;100.00;99795.91;1749001;81;21022;-92
2022/07/10 03:25:07;;;;;;;11.08;9.98;;;;;;;19.75;100.00;99790.99;1749078;81;21617;-89
2022/07/10 03:27:35;;;;;;;10.38;9.25;;;;;;;19.83;100.00;99796.91;1759412;81;21160;-90
2022/07/10 03:30:03;;;;;;;11.15;9.90;;;;;;;19.94;100.00;99793.44;1739894;81;21193;-89
2022/07/10 03:32:31;;;;;;;10.95;9.65;;;;;;;20.03;100.00;99792.78;1730015;82;21094;-88
2022/07/10 03:34:59;;;;;;;10.50;9.48;;;;;;;20.09;100.00;99788.02;1730113;82;22017;-89
2022/07/10 03:37:26;;;;;;;10.68;9.33;;;;;;;20.14;100.00;99786.91;1730690;82;21022;-89
2022/07/10 03:39:53;;;;;;;10.88;9.58;;;;;;;20.20;100.00;99780.82;1730333;82;21140;-89
2022/07/10 03:42:22;;;;;;;9.75;8.85;;;;;;;20.25;100.00;99787.66;1730377;82;21055;-91
2022/07/10 03:44:50;;;;;;;10.23;9.33;;;;;;;20.29;100.00;99787.56;1729237;82;21050;-89
2022/07/10 03:47:18;;;;;;;10.58;9.63;;;;;;;20.32;100.00;99780.56;1730377;82;21030;-90
2022/07/10 03:49:46;;;;;;;11.18;9.80;;;;;;;20.35;100.00;99789.92;1730750;82;21057;-89
2022/07/10 03:52:13;;;;;;;9.68;8.88;;;;;;;20.35;100.00;99785.95;1730271;82;21212;-90
2022/07/10 03:54:40;;;;;;;9.75;8.85;;;;;;;20.38;100.00;99788.21;1742179;81;21023;-90
2022/07/10 03:59:53;;;;;;;10.23;8.83;;;;;;;20.44;100.00;99793.18;1771461;81;21014;-89
2022/07/10 04:02:20;;;;;;;12.63;9.50;;;;;;;20.50;100.00;99791.08;1772005;81;21042;-89
2022/07/10 04:04:47;;;;;;;9.28;8.33;;;;;;;20.55;100.00;99795.77;1772107;81;21130;-87
2022/07/10 04:07:14;;;;;;;9.78;8.58;;;;;;;20.60;100.00;99798.61;1771860;81;21473;-88
2022/07/10 04:09:43;;;;;;;9.35;7.97;;;;;;;20.64;100.00;99799.34;1771214;81;21061;-89
2022/07/10 04:12:10;;;;;;;12.63;9.50;;;;;;;20.71;100.00;99799.32;1750756;80;21030;-89
2022/07/10 04:14:39;;;;;;;9.38;8.43;;;;;;;20.75;100.00;99799.80;1691711;84;22192;-89
2022/07/10 04:17:06;;;;;;;9.00;8.20;;;;;;;20.78;100.00;99787.47;1704479;82;21141;-88
2022/07/10 04:19:34;;;;;;;10.08;9.00;;;;;;;20.82;100.00;99791.35;1695662;84;21083;-88
2022/07/10 04:22:01;;;;;;;9.80;8.75;;;;;;;20.87;100.00;99796.03;1685396;84;21101;-89
2022/07/10 04:24:28;;;;;;;9.05;8.25;;;;;;;20.92;100.00;99799.67;1708161;84;21507;-89
2022/07/10 04:26:56;;;;;;;11.05;8.43;;;;;;;21.01;100.00;99795.50;1707690;82;21073;-89
2022/07/10 04:29:23;;;;;;;9.33;8.50;;;;;;;21.12;100.00;99797.02;1677731;85;21216;-88
2022/07/10 04:31:50;;;;;;;9.43;8.63;;;;;;;21.26;100.00;99802.33;1707736;84;21638;-87
2022/07/10 04:34:17;;;;;;;10.40;8.98;;;;;;;21.42;100.00;99805.87;1677868;85;21055;-88
2022/07/10 04:36:44;;;;;;;10.45;9.53;;;;;;;21.61;100.00;99809.22;1708062;84;21472;-90
2022/07/10 04:39:12;;;;;;;9.30;8.50;;;;;;;21.74;100.00;99796.75;1677958;85;21613;-90
2022/07/10 04:41:40;;;;;;;8.90;8.10;;;;;;;21.86;100.00;99798.73;1708036;82;21796;-88
2022/07/10 04:44:07;;;;;;;10.50;8.43;;;;;;;21.99;100.00;99803.17;1708027;84;21035;-91
2022/07/10 04:46:34;;;;;;;10.00;9.03;;;;;;;22.10;100.00;99789.76;1708482;84;21005;-91
2022/07/10 04:49:03;;;;;;;9.75;8.80;;;;;;;22.21;100.00;99797.05;1707992;82;21045;-91
2022/07/10 04:51:30;;;;;;;9.18;8.28;;;;;;;22.29;100.00;99786.20;1678163;85;21616;-89
2022/07/10 04:53:58;;;;;;;8.65;7.95;;;;;;;22.38;100.00;99782.28;1706505;84;21148;-89
2022/07/10 04:56:26;;;;;;;9.40;8.60;;;;;;;22.53;100.00;99787.81;1706592;84;21109;-92
2022/07/10 04:58:53;;;;;;;10.08;9.00;;;;;;;22.62;100.00;99778.58;1706849;84;21078;-92
2022/07/10 05:01:21;;;;;;;9.55;8.70;;;;;;;22.70;100.00;99777.48;1706720;83;21082;-92
2022/07/10 05:03:48;;;;;;;9.63;8.60;;;;;;;22.75;100.00;99770.20;1706865;84;21101;-89
2022/07/10 05:06:15;;;;;;;11.45;9.35;;;;;;;22.76;100.00;99775.28;1706078;83;21152;-91
2022/07/10 05:08:42;;;;;;;9.73;8.80;;;;;;;22.73;100.00;99776.23;1706280;83;21009;-93
2022/07/10 05:11:10;;;;;;;9.98;8.98;;;;;;;22.67;100.00;99782.72;1706400;84;21058;-95
2022/07/10 05:13:38;;;;;;;10.50;9.50;;;;;;;22.61;100.00;99786.23;1706187;84;21078;-94
2022/07/10 05:16:06;;;;;;;10.70;9.70;;;;;;;22.53;100.00;99783.84;1703614;84;21105;-93
2022/07/10 05:18:33;;;;;;;10.08;9.08;;;;;;;22.49;100.00;99783.95;1694454;84;21352;-93
2022/07/10 05:21:00;;;;;;;11.78;9.95;;;;;;;22.50;100.00;99785.09;1690863;83;21074;-92
2022/07/10 05:23:27;;;;;;;12.07;9.88;;;;;;;22.61;100.00;99784.91;1677884;85;21069;-92
2022/07/10 05:25:55;;;;;;;10.10;9.30;;;;;;;22.77;100.00;99790.19;1707354;84;21053;-92
2022/07/10 05:28:22;;;;;;;10.28;9.30;;;;;;;22.89;100.00;99780.20;1683175;84;21299;-91
2022/07/10 05:30:49;;;;;;;9.65;8.70;;;;;;;22.98;100.00;99782.36;1726235;83;21105;-93
2022/07/10 05:33:18;;;;;;;9.15;8.35;;;;;;;22.99;100.00;99779.20;1726166;83;21028;-91
2022/07/10 05:35:45;;;;;;;9.83;8.83;;;;;;;22.98;100.00;99778.91;1726444;83;22137;-92
2022/07/10 05:38:12;;;;;;;13.13;9.48;;;;;;;22.95;100.00;99768.22;1725847;83;21383;-95
2022/07/10 05:40:39;;;;;;;10.95;9.85;;;;;;;22.94;100.00;99761.28;1726509;83;21033;-93
2022/07/10 05:43:09;;;;;;;10.80;9.30;;;;;;;22.95;100.00;99758.92;1726132;83;21255;-93
2022/07/10 05:45:37;;;;;;;9.40;8.55;;;;;;;22.95;100.00;99754.94;1726212;83;21072;-92
2022/07/10 05:48:06;;;;;;;10.65;9.60;;;;;;;22.98;100.00;99758.47;1726317;83;21041;-96
2022/07/10 05:50:33;;;;;;;10.20;9.20;;;;;;;23.11;100.00;99758.06;1726406;83;21539;-96
2022/07/10 05:53:00;;;;;;;10.55;9.50;;;;;;;23.20;100.00;99752.77;1726845;83;21036;-96
2022/07/10 05:55:28;;;;;;;10.68;9.68;;;;;;;23.21;100.00;99742.45;1734548;81;21782;-96
2022/07/10 05:57:55;;;;;;;10.32;9.43;;;;;;;23.20;100.00;99744.80;1709645;83;21108;-95
2022/07/10 06:00:23;;;;;;;11.90;9.43;;;;;;;23.18;100.00;99741.58;1766590;80;21667;-94
2022/07/10 06:02:50;;;;;;;11.45;9.25;;;;;;;23.21;100.00;99744.30;1771128;79;21013;-95
2022/07/10 06:05:17;;;;;;;9.85;8.85;;;;;;;23.28;100.00;99747.70;1761887;79;21550;-95
2022/07/10 06:07:44;;;;;;;10.40;9.30;;;;;;;23.36;100.00;99746.58;1762297;80;22323;-95
2022/07/10 06:10:12;;;;;;;11.35;9.75;;;;;;;23.51;100.00;99744.40;1762640;80;21021;-96
2022/07/10 06:12:38;;;;;;;13.70;10.45;;;;;;;23.72;100.00;99741.77;1763054;80;21054;-95
2022/07/10 06:15:07;;;;;;;12.58;10.20;;;;;;;23.96;100.00;99740.58;1762718;80;21595;-95
2022/07/10 06:17:34;;;;;;;9.90;8.88;;;;;;;24.17;100.00;99741.13;1763094;80;21040;-93
2022/07/10 06:20:01;;;;;;;12.82;11.50;;;;;;;24.33;100.00;99740.98;1763192;79;22130;-94
2022/07/10 06:22:32;;;;;;;15.98;11.60;;;;;;;24.40;100.00;99733.20;1762525;79;21010;-94
2022/07/10 06:25:07;;;;;;;12.75;10.45;;;;;;;24.50;100.00;99725.98;1762967;81;21542;-96
2022/07/10 06:27:35;;;;;;;11.57;10.38;;;;;;;24.60;100.00;99725.95;1762580;81;21657;-93
2022/07/10 06:30:04;;;;;;;11.48;10.40;;;;;;;24.66;100.00;99728.51;1757159;81;21002;-95
2022/07/10 06:32:32;;;;;;;12.60;11.50;;;;;;;24.75;100.00;99727.66;1757142;80;21103;-94
2022/07/10 06:35:01;;;;;;;13.38;11.97;;;;;;;24.84;100.00;99724.95;1757139;81;21057;-95
2022/07/10 06:37:29;;;;;;;14.55;11.60;;;;;;;24.95;100.00;99727.85;1756982;80;21077;-96
2022/07/10 06:39:56;;;;;;;12.60;11.50;;;;;;;25.02;100.00;99719.22;1738174;81;21112;-95
2022/07/10 06:42:23;;;;;;;12.58;11.30;;;;;;;25.18;100.00;99705.70;1757297;81;21072;-96
2022/07/10 06:44:51;;;;;;;13.70;12.33;;;;;;;25.44;100.00;99703.05;1757381;81;21791;-94
2022/07/10 06:50:08;;;;;;;14.95;13.55;;;;;;;25.78;100.00;99703.71;1753082;80;21028;-95
2022/07/10 06:52:37;;;;;;;18.27;13.80;;;;;;;25.84;100.00;99705.42;1748801;81;21634;-94
2022/07/10 06:55:06;;;;;;;14.80;13.40;;;;;;;25.91;100.00;99695.41;1746874;81;21520;-96
2022/07/10 06:57:33;;;;;;;16.23;13.05;;;;;;;26.00;100.00;99695.81;1744910;81;21121;-96
2022/07/10 07:00:00;;;;;;;16.87;13.90;;;;;;;26.06;100.00;99694.05;1745396;81;21081;-95
2022/07/10 07:02:27;;;;;;;15.03;13.60;;;;;;;26.05;100.00;99689.26;1748194;80;21042;-95
2022/07/10 07:04:55;;;;;;;16.27;14.68;;;;;;;26.11;100.00;99689.66;1747627;80;21022;-94
2022/07/10 07:07:23;;;;;;;17.60;15.35;;;;;;;26.18;100.00;99676.17;1745627;81;20994;-94
2022/07/10 07:09:51;;;;;;;19.60;16.85;;;;;;;26.33;100.00;99671.59;1744527;81;21106;-95
2022/07/10 07:12:18;;;;;;;18.92;16.93;;;;;;;26.43;100.00;99670.42;1705891;83;21062;-95
2022/07/10 07:14:46;;;;;;;20.85;18.17;;;;;;;26.52;100.00;99667.34;1699107;83;21646;-96
2022/07/10 07:17:20;;;;;;;17.73;15.90;;;;;;;26.59;100.00;99662.12;1745807;81;21038;-96
2022/07/10 07:25:15;;;;;;;17.85;15.93;;;;;;;26.91;100.00;99656.19;1746929;81;21101;-96
2022/07/10 07:27:42;;;;;;;18.27;16.37;;;;;;;26.94;100.00;99666.89;1746755;81;21045;-95
2022/07/10 07:30:14;;;;;;;19.62;15.65;;;;;;;26.94;100.00;99664.22;1745649;81;21046;-95
2022/07/10 07:32:43;;;;;;;19.90;16.73;;;;;;;26.92;100.00;99660.45;1748092;81;21021;-94
2022/07/10 07:35:12;;;;;;;20.08;17.67;;;;;;;26.77;100.00;99668.25;1745699;81;21556;-94
2022/07/10 07:37:43;;;;;;;24.80;20.57;;;;;;;26.54;100.00;99663.91;1738922;81;21156;-95
2022/07/10 07:40:13;;;;;;;20.90;17.57;;;;;;;26.35;100.00;99674.83;1737814;81;21083;-95
2022/07/10 07:42:42;;;;;;;24.15;19.82;;;;;;;26.18;100.00;99681.51;1684075;84;21130;-93
2022/07/10 07:45:10;;;;;;;20.82;18.65;;;;;;;26.03;100.00;99690.02;1699053;83;21120;-96
2022/07/10 07:47:46;;;;;;;22.65;19.80;;;;;;;25.90;100.00;99689.79;1735449;81;21782;-95
2022/07/10 07:50:26;;;;;;;21.30;19.02;;;;;;;25.80;100.00;99687.76;1736180;81;21528;-93
2022/07/10 07:52:54;;;;;;;23.60;19.67;;;;;;;25.73;100.00;99687.60;1743196;81;21552;-94
2022/07/10 07:55:22;;;;;;;21.65;19.40;;;;;;;25.68;100.00;99678.98;1743609;80;21219;-96
2022/07/10 07:57:57;;;;;;;28.60;21.73;;;;;;;25.68;100.00;99677.66;1746325;81;21049;-90
2022/07/10 08:00:25;;;;;;;22.07;19.80;;;;;;;25.67;100.00;99692.85;1744812;81;21795;-89
2022/07/10 08:02:54;;;;;;;23.10;20.60;;;;;;;25.69;100.00;99699.80;1745766;81;21488;-89
2022/07/10 08:05:23;;;;;;;22.67;19.62;;;;;;;25.73;100.00;99708.42;1748148;81;21089;-89
2022/07/10 08:07:55;;;;;;;23.15;19.30;;;;;;;25.80;100.00;99714.42;1742425;81;20995;-90
2022/07/10 08:10:26;;;;;;;25.37;20.65;;;;;;;25.96;100.00;99718.70;1748642;81;21097;-91
2022/07/10 08:12:53;;;;;;;22.22;19.30;;;;;;;25.96;100.00;99718.70;1764635;81;21150;-90
2022/07/10 08:15:22;;;;;;;22.73;19.25;;;;;;;26.00;100.00;99710.48;1764641;81;21034;-87
2022/07/10 08:17:55;;;;;;;22.75;20.43;;;;;;;26.01;100.00;99711.31;1764607;80;21034;-87
2022/07/10 08:20:24;;;;;;;23.30;20.80;;;;;;;26.01;100.00;99718.77;1764310;80;21054;-88
2022/07/10 08:22:55;;;;;;;25.92;20.92;;;;;;;26.02;100.00;99716.94;1764386;80;21085;-88
2022/07/10 08:25:23;;;;;;;27.20;21.17;;;;;;;26.09;100.00;99729.09;1746149;81;21098;-88
2022/07/10 08:27:50;;;;;;;22.50;20.23;;;;;;;26.33;100.00;99724.95;1740899;81;20987;-89
2022/07/10 08:30:18;;;;;;;23.67;20.68;;;;;;;26.68;100.00;99726.58;1753588;80;21048;-89
2022/07/10 08:32:45;;;;;;;23.25;20.82;;;;;;;27.02;100.00;99715.88;1759161;80;21494;-88
2022/07/10 08:35:13;;;;;;;25.62;21.62;;;;;;;27.34;100.00;99717.89;1749924;81;21423;-89
2022/07/10 08:37:43;;;;;;;23.98;21.50;;;;;;;27.58;100.00;99714.98;1762251;80;21265;-88
2022/07/10 08:40:13;;;;;;;27.32;23.45;;;;;;;27.75;100.00;99710.09;1755785;80;21069;-89
2022/07/10 08:42:45;;;;;;;26.77;23.20;;;;;;;27.86;100.00;99710.45;1755717;80;21045;-89
2022/07/10 08:45:13;;;;;;;31.02;23.87;;;;;;;27.99;100.00;99716.75;1755949;80;21003;-89
2022/07/10 08:47:42;;;;;;;25.68;22.95;;;;;;;28.14;100.00;99711.29;1758789;80;21104;-90
2022/07/10 08:50:23;;;;;;;25.25;22.62;;;;;;;28.27;100.00;99716.21;1758253;79;22201;-89
2022/07/10 08:53:13;;;;;;;29.33;24.47;;;;;;;28.42;100.00;99714.71;1765092;79;21033;-89
2022/07/10 08:55:40;;;;;;;26.93;24.20;;;;;;;28.54;100.00;99704.64;1753623;80;21690;-89
2022/07/10 08:58:09;;;;;;;27.95;24.90;;;;;;;28.68;100.00;99704.19;1756495;80;21101;-89
2022/07/10 09:00:37;;;;;;;26.52;23.25;;;;;;;28.79;100.00;99695.19;1761810;80;21026;-88
2022/07/10 09:03:04;;;;;;;27.07;23.30;;;;;;;28.83;96.98;99690.91;1755658;79;21129;-89
2022/07/10 09:05:32;;;;;;;25.05;21.52;;;;;;;28.83;99.07;99693.59;1763719;79;20970;-89
2022/07/10 09:08:00;;;;;;;32.48;25.08;;;;;;;28.96;99.02;99697.69;1756218;80;21515;-89
2022/07/10 09:10:29;;;;;;;25.02;22.15;;;;;;;29.16;93.20;99706.35;1749853;80;20979;-90
2022/07/10 09:12:58;;;;;;;32.28;24.43;;;;;;;29.33;98.70;99706.72;1775843;79;20945;-89
2022/07/10 09:15:32;;;;;;;;;;;;;;;29.40;94.69;99709.96;1764460;80;21084;-88
2022/07/10 09:18:09;;;;;;;26.02;23.22;;;;;;;29.40;87.48;99705.94;1760106;80;20171;-89
2022/07/10 09:20:40;;;;;;;26.68;23.70;;;;;;;29.28;93.00;99702.91;1758091;80;21038;-89
2022/07/10 09:23:20;;;;;;;26.45;22.87;;;;;;;29.15;96.64;99692.67;1759174;80;21073;-89
2022/07/10 09:25:53;;;;;;;27.17;22.87;;;;;;;29.12;93.93;99690.54;1755527;80;21061;-88
2022/07/10 09:28:22;;;;;;;33.20;25.05;;;;;;;29.10;91.30;99687.31;1761522;80;21107;-90
2022/07/10 09:30:50;;;;;;;26.00;23.00;;;;;;;29.08;96.81;99686.75;1751300;80;21599;-90
2022/07/10 09:33:25;;;;;;;26.68;23.45;;;;;;;29.10;99.15;99689.98;1759675;80;21033;-90
2022/07/10 09:36:08;;;;;;;28.25;23.12;;;;;;;29.18;100.00;99676.09;1750836;81;21057;-89
2022/07/10 09:38:51;;;;;;;27.93;22.58;;;;;;;29.32;91.50;99679.64;1755088;80;21018;-89
2022/07/10 09:41:23;;;;;;;30.25;25.52;;;;;;;29.48;97.12;99673.25;1759470;80;21274;-88
2022/07/10 09:44:02;;;;;;;30.40;24.77;;;;;;;29.62;79.46;99674.08;1756528;80;21073;-89
2022/07/10 09:46:41;;;;;;;26.25;23.62;;;;;;;29.73;80.83;99675.72;1751077;81;21542;-89
2022/07/10 09:49:13;;;;;;;28.25;25.30;;;;;;;29.93;84.08;99668.27;1756334;80;21010;-89
2022/07/10 09:51:45;;;;;;;30.15;24.90;;;;;;;30.12;75.23;99659.14;1738267;80;21116;-89
2022/07/10 09:54:13;;;;;;;30.43;25.17;;;;;;;30.29;79.62;99662.88;1759940;80;21212;-91
2022/07/10 09:56:47;;;;;;;27.15;24.25;;;;;;;30.42;71.16;99654.80;1758147;80;21088;-90
2022/07/10 09:59:18;;;;;;;31.40;25.23;;;;;;;30.48;71.97;99654.27;1751493;81;21571;-89
2022/07/10 10:01:49;;;;;;;29.77;24.20;;;;;;;30.46;68.30;99655.89;1750885;81;21080;-89
2022/07/10 10:04:20;;;;;;;34.15;27.15;;;;;;;30.29;67.31;99652.13;1755189;80;21034;-89
2022/07/10 10:06:56;;;;;;;30.72;25.70;;;;;;;30.13;68.70;99662.61;1781975;80;21539;-88
2022/07/10 10:09:37;;;;;;;31.73;25.23;;;;;;;30.03;65.75;99660.74;1768323;80;21041;-89
2022/07/10 10:12:17;;;;;;;29.20;25.77;;;;;;;29.89;66.65;99658.57;1756504;80;21295;-89
2022/07/10 10:14:44;;;;;;;28.30;24.30;;;;;;;29.73;67.86;99658.28;1760122;80;21010;-89
2022/07/10 10:17:15;;;;;;;26.85;23.98;;;;;;;29.49;68.89;99656.09;1751208;80;21603;-89
2022/07/10 10:22:31;;;;;;;28.77;24.80;;;;;;;29.14;71.15;99655.43;1708052;83;21042;-89
2022/07/10 10:25:03;;;;;;;36.55;27.95;;;;;;;29.16;74.78;99661.34;1751792;80;21514;-89
2022/07/10 10:27:31;;;;;;;34.03;26.87;;;;;;;29.33;73.88;99663.83;1755645;80;21033;-89
2022/07/10 10:30:00;;;;;;;35.40;26.50;;;;;;;29.50;71.03;99660.91;1760597;80;21085;-89
2022/07/10 10:32:28;;;;;;;34.90;27.62;;;;;;;29.61;71.99;99659.88;1757876;80;21096;-90
2022/07/10 10:34:59;;;;;;;33.80;27.13;;;;;;;29.61;70.64;99657.72;1729551;81;21041;-90
2022/07/10 10:37:33;;;;;;;32.40;26.50;;;;;;;29.49;68.72;99650.73;1754372;80;21041;-89
2022/07/10 10:40:01;;;;;;;33.67;27.20;;;;;;;29.33;69.14;99657.13;1756272;80;21021;-89
2022/07/10 10:42:43;;;;;;;33.02;27.40;;;;;;;29.15;70.03;99658.39;1753331;80;21029;-89
2022/07/10 10:45:37;;;;;;;33.92;27.98;;;;;;;29.03;69.63;99658.06;1752104;80;21168;-88
2022/07/10 10:48:13;;;;;;;41.80;32.48;;;;;;;28.90;71.65;99662.56;1753248;80;21036;-88
2022/07/10 10:50:52;;;;;;;45.15;33.67;;;;;;;28.76;74.87;99658.20;1761168;80;21025;-90
2022/07/10 10:53:26;;;;;;;36.20;27.95;;;;;;;28.63;74.75;99653.56;1748960;81;21089;-89
2022/07/10 10:56:07;;;;;;;34.13;27.67;;;;;;;28.57;77.19;99653.23;1751878;80;21044;-88
2022/07/10 10:58:46;;;;;;;39.60;30.60;;;;;;;28.61;80.19;99658.36;1754206;80;21186;-89
2022/07/10 11:01:29;;;;;;;36.80;29.00;;;;;;;28.74;83.11;99654.97;1748431;81;21077;-89
2022/07/10 11:04:14;;;;;;;34.88;29.15;;;;;;;28.91;83.25;99654.80;1749348;82;21092;-90
2022/07/10 11:06:53;;;;;;;37.88;29.12;;;;;;;29.06;78.68;99659.41;1750872;80;21050;-90
2022/07/10 11:09:31;;;;;;;39.27;30.05;;;;;;;29.15;77.49;99658.39;1757744;80;21568;-88
2022/07/10 11:12:04;;;;;;;40.48;30.37;;;;;;;29.21;75.35;99662.14;1757746;80;21546;-89
2022/07/10 11:14:42;;;;;;;37.78;30.80;;;;;;;29.22;73.31;99657.06;1755261;80;21081;-89
2022/07/10 11:17:12;;;;;;;32.15;27.75;;;;;;;29.24;72.15;99654.92;1726036;80;33596;-89
2022/07/10 11:19:40;;;;;;;33.75;29.65;;;;;;;29.28;74.05;99646.62;1749118;81;21081;-89
2022/07/10 11:22:30;;;;;;;30.23;27.10;;;;;;;29.34;74.83;99648.81;1754844;80;21080;-89
2022/07/10 11:25:18;;;;;;;33.85;27.55;;;;;;;29.45;74.48;99644.28;1759442;80;21132;-90
2022/07/10 11:28:08;;;;;;;36.77;25.48;;;;;;;29.57;71.09;99646.20;1758054;80;21025;-90
2022/07/10 11:30:52;;;;;;;31.48;24.30;;;;;;;29.73;65.87;99638.96;1760630;80;21085;-90
2022/07/10 11:33:21;;;;;;;22.98;20.48;;;;;;;29.88;63.66;99632.81;1757859;80;21029;-89
2022/07/10 11:35:51;;;;;;;23.60;18.10;;;;;;;29.91;57.62;99640.86;1756521;80;21539;-90
2022/07/10 11:38:26;;;;;;;23.38;17.65;;;;;;;29.83;55.83;99630.66;1759797;80;21295;-90
2022/07/10 11:40:54;;;;;;;22.07;17.67;;;;;;;29.76;54.49;99633.63;1717686;83;21090;-89
2022/07/10 11:43:23;;;;;;;19.27;15.88;;;;;;;29.63;55.27;99624.22;1761214;80;21462;-90
2022/07/10 11:45:54;;;;;;;22.37;18.00;;;;;;;29.62;53.56;99629.83;1751251;80;21637;-90